Aérodrome :
LOGIN :

S'inscrire | Disclaimer

   EN    FR    IT 

 










Légende :    VFR   VFR Marginal   IFR   IFR Intensif   IFR Très Intensif
Visi : 
Plafond : 
>= 8 km
>= 3000ft
5 à 8 km
1000 à 3000 ft
1500m à 5 km
500 à 1000 ft
800 à 1500m
200 à 500 ft
< 800m
< 200 ft
Symboles :   Orages  Brouillard  Fortes neiges  Fortes précipitations  Vent > 20 kt
SIGMETs :   Divers  Orages  Givrage  Turbulence  Onde Orograph.  Cendres Volcan.







- Altitude de l'aérodrome : 39 ft
- Code IATA : TRS


LIPQ - Friuli Venezia Giulia Apt. Trieste

DERNIER METAR :
  • 231150Z 21007KT 170V240 9999 SCT035 18/12 Q1018

METARs EXPIRÉS :
  • 231120Z VRB03KT 9999 SCT025 19/12 Q1017
  • 231050Z 19004KT 110V280 9999 SCT025 17/11 Q1018
  • 231020Z 17004KT 140V230 9999 SCT025 17/11 Q1018
  • 230950Z VRB03KT 9999 SCT025 SCT070 16/11 Q1017
  • 230920Z 20003KT 140V230 9999 SCT025 BKN060 16/11 Q1017

TAF TAF LIPQ
Valide du 23 à 12h jusqu'au 24 à 12h UTC


231100Z 2312/2412 VRB05KT 9999 SCT030
BECMG 2320/2322 3000 BR
TEMPO 2400/2406 0500 FG BKN006
BECMG 2408/2410 8000
Pas de NOTAMs connus pour ce terrain.



MET'MAP, la Météo Aéronautique d'un coup d'oeil ! - Copyright ORBIFLY Décembre 2007 - Disclaimer

ORBIFLY MET'MAP TEAM :

Programmation & Développement : Alexandra Zaïnal
Conception & Développement : Baudouin d'Aumeries
Co-Programmation & Développement : Marc-Olivier Méhu
Soutien technique & logistique : Manuel Goepfert

Contact : metmap@orbifly.com




SOURCES & CREDITS :

   NOAA